sensor_id;sensor_type;location;lat;lon;timestamp;P1;durP1;ratioP1;P2;durP2;ratioP2
76105;SDS011;64832;45.274;5.880;2022-12-11T00:01:21;3.35;;;2.40;;
76105;SDS011;64832;45.274;5.880;2022-12-11T00:03:47;5.43;;;2.65;;
76105;SDS011;64832;45.274;5.880;2022-12-11T00:06:14;3.95;;;2.17;;
76105;SDS011;64832;45.274;5.880;2022-12-11T00:08:41;5.70;;;2.30;;
76105;SDS011;64832;45.274;5.880;2022-12-11T00:11:07;7.85;;;2.97;;
76105;SDS011;64832;45.274;5.880;2022-12-11T00:13:33;3.78;;;2.20;;
76105;SDS011;64832;45.274;5.880;2022-12-11T00:15:59;4.20;;;1.90;;
76105;SDS011;64832;45.274;5.880;2022-12-11T00:18:25;5.45;;;1.83;;
76105;SDS011;64832;45.274;5.880;2022-12-11T00:20:50;4.20;;;2.10;;
76105;SDS011;64832;45.274;5.880;2022-12-11T00:23:16;2.72;;;2.20;;
76105;SDS011;64832;45.274;5.880;2022-12-11T00:25:42;3.78;;;1.90;;
76105;SDS011;64832;45.274;5.880;2022-12-11T00:28:08;5.80;;;2.10;;
76105;SDS011;64832;45.274;5.880;2022-12-11T03:02:55;5.07;;;2.25;;
76105;SDS011;64832;45.274;5.880;2022-12-11T03:05:20;6.50;;;2.38;;
76105;SDS011;64832;45.274;5.880;2022-12-11T03:07:46;3.67;;;1.92;;
76105;SDS011;64832;45.274;5.880;2022-12-11T03:10:13;3.47;;;2.55;;
76105;SDS011;64832;45.274;5.880;2022-12-11T03:12:43;6.07;;;2.22;;
76105;SDS011;64832;45.274;5.880;2022-12-11T03:15:12;9.40;;;2.40;;
76105;SDS011;64832;45.274;5.880;2022-12-11T03:17:53;3.25;;;2.28;;
76105;SDS011;64832;45.274;5.880;2022-12-11T03:26:01;4.82;;;2.55;;
76105;SDS011;64832;45.274;5.880;2022-12-11T03:28:38;4.65;;;2.20;;
76105;SDS011;64832;45.274;5.880;2022-12-11T06:31:30;4.22;;;2.60;;
76105;SDS011;64832;45.274;5.880;2022-12-11T06:33:55;3.15;;;2.60;;
76105;SDS011;64832;45.274;5.880;2022-12-11T06:36:21;3.55;;;2.45;;
76105;SDS011;64832;45.274;5.880;2022-12-11T06:38:47;2.58;;;2.10;;
76105;SDS011;64832;45.274;5.880;2022-12-11T06:41:13;4.63;;;2.45;;
76105;SDS011;64832;45.274;5.880;2022-12-11T06:43:39;4.15;;;2.30;;
76105;SDS011;64832;45.274;5.880;2022-12-11T06:46:07;3.78;;;2.63;;
76105;SDS011;64832;45.274;5.880;2022-12-11T06:48:34;4.60;;;2.20;;
76105;SDS011;64832;45.274;5.880;2022-12-11T06:51:04;3.38;;;2.50;;
76105;SDS011;64832;45.274;5.880;2022-12-11T06:53:32;3.33;;;2.60;;
76105;SDS011;64832;45.274;5.880;2022-12-11T06:56:02;6.28;;;2.45;;
76105;SDS011;64832;45.274;5.880;2022-12-11T06:58:32;4.22;;;2.90;;
76105;SDS011;64832;45.274;5.880;2022-12-11T07:00:59;3.55;;;2.38;;
76105;SDS011;64832;45.274;5.880;2022-12-11T07:03:26;4.28;;;2.42;;
76105;SDS011;64832;45.274;5.880;2022-12-11T07:05:51;3.38;;;2.63;;
76105;SDS011;64832;45.274;5.880;2022-12-11T07:08:17;4.28;;;2.80;;
76105;SDS011;64832;45.274;5.880;2022-12-11T07:10:42;3.65;;;2.55;;
76105;SDS011;64832;45.274;5.880;2022-12-11T07:13:07;5.25;;;2.78;;
76105;SDS011;64832;45.274;5.880;2022-12-11T07:15:33;3.85;;;2.45;;
76105;SDS011;64832;45.274;5.880;2022-12-11T07:17:59;3.70;;;2.70;;
76105;SDS011;64832;45.274;5.880;2022-12-11T07:20:24;3.58;;;2.55;;
76105;SDS011;64832;45.274;5.880;2022-12-11T07:22:49;3.70;;;3.00;;
76105;SDS011;64832;45.274;5.880;2022-12-11T07:25:15;3.13;;;2.70;;
76105;SDS011;64832;45.274;5.880;2022-12-11T07:27:40;3.47;;;2.80;;
76105;SDS011;64832;45.274;5.880;2022-12-11T07:30:06;3.60;;;3.00;;
76105;SDS011;64832;45.274;5.880;2022-12-11T07:32:32;3.67;;;2.90;;
76105;SDS011;64832;45.274;5.880;2022-12-11T07:34:57;3.83;;;2.83;;
76105;SDS011;64832;45.274;5.880;2022-12-11T07:37:23;4.43;;;2.67;;
76105;SDS011;64832;45.274;5.880;2022-12-11T07:39:49;6.32;;;2.88;;
76105;SDS011;64832;45.274;5.880;2022-12-11T07:42:14;5.05;;;2.88;;
76105;SDS011;64832;45.274;5.880;2022-12-11T07:44:40;3.30;;;2.60;;
76105;SDS011;64832;45.274;5.880;2022-12-11T07:47:05;5.47;;;2.78;;
76105;SDS011;64832;45.274;5.880;2022-12-11T07:49:30;6.45;;;3.00;;
76105;SDS011;64832;45.274;5.880;2022-12-11T07:51:56;5.63;;;2.95;;
76105;SDS011;64832;45.274;5.880;2022-12-11T07:54:21;8.63;;;3.25;;
76105;SDS011;64832;45.274;5.880;2022-12-11T07:56:47;4.45;;;2.70;;
76105;SDS011;64832;45.274;5.880;2022-12-11T07:59:12;7.50;;;2.90;;
76105;SDS011;64832;45.274;5.880;2022-12-11T08:01:38;5.13;;;2.90;;
76105;SDS011;64832;45.274;5.880;2022-12-11T08:04:05;3.55;;;2.80;;
76105;SDS011;64832;45.274;5.880;2022-12-11T08:06:33;7.28;;;2.95;;
76105;SDS011;64832;45.274;5.880;2022-12-11T08:09:02;4.25;;;2.58;;
76105;SDS011;64832;45.274;5.880;2022-12-11T08:11:29;6.82;;;3.00;;
76105;SDS011;64832;45.274;5.880;2022-12-11T08:13:55;4.78;;;2.70;;
76105;SDS011;64832;45.274;5.880;2022-12-11T08:16:23;3.95;;;2.92;;
76105;SDS011;64832;45.274;5.880;2022-12-11T08:18:48;5.00;;;2.90;;
76105;SDS011;64832;45.274;5.880;2022-12-11T08:21:15;4.18;;;3.17;;
76105;SDS011;64832;45.274;5.880;2022-12-11T08:23:42;10.95;;;7.43;;
76105;SDS011;64832;45.274;5.880;2022-12-11T08:26:09;15.32;;;11.18;;
76105;SDS011;64832;45.274;5.880;2022-12-11T08:28:37;14.48;;;8.25;;
76105;SDS011;64832;45.274;5.880;2022-12-11T08:31:03;12.05;;;7.05;;
76105;SDS011;64832;45.274;5.880;2022-12-11T08:33:30;12.38;;;6.60;;
76105;SDS011;64832;45.274;5.880;2022-12-11T08:35:56;10.90;;;5.20;;
76105;SDS011;64832;45.274;5.880;2022-12-11T08:38:21;7.75;;;4.85;;
76105;SDS011;64832;45.274;5.880;2022-12-11T08:40:47;9.70;;;5.53;;
76105;SDS011;64832;45.274;5.880;2022-12-11T08:43:12;7.18;;;5.35;;
76105;SDS011;64832;45.274;5.880;2022-12-11T08:45:38;7.70;;;5.20;;
76105;SDS011;64832;45.274;5.880;2022-12-11T08:48:03;8.70;;;5.50;;
76105;SDS011;64832;45.274;5.880;2022-12-11T08:50:29;6.93;;;5.22;;
76105;SDS011;64832;45.274;5.880;2022-12-11T08:52:54;7.60;;;4.68;;
76105;SDS011;64832;45.274;5.880;2022-12-11T08:55:20;13.65;;;4.88;;
76105;SDS011;64832;45.274;5.880;2022-12-11T08:57:46;7.15;;;4.45;;
76105;SDS011;64832;45.274;5.880;2022-12-11T09:00:12;6.38;;;4.45;;
76105;SDS011;64832;45.274;5.880;2022-12-11T09:02:39;6.07;;;4.80;;
76105;SDS011;64832;45.274;5.880;2022-12-11T09:05:05;5.43;;;4.00;;
76105;SDS011;64832;45.274;5.880;2022-12-11T09:07:35;6.38;;;4.15;;
76105;SDS011;64832;45.274;5.880;2022-12-11T09:10:03;5.93;;;3.65;;
76105;SDS011;64832;45.274;5.880;2022-12-11T09:12:31;5.63;;;4.00;;
76105;SDS011;64832;45.274;5.880;2022-12-11T09:14:57;5.95;;;4.13;;
76105;SDS011;64832;45.274;5.880;2022-12-11T09:17:23;6.40;;;3.78;;
76105;SDS011;64832;45.274;5.880;2022-12-11T09:19:48;8.27;;;4.43;;
76105;SDS011;64832;45.274;5.880;2022-12-11T09:22:13;4.25;;;3.60;;
76105;SDS011;64832;45.274;5.880;2022-12-11T09:24:39;4.47;;;3.58;;
76105;SDS011;64832;45.274;5.880;2022-12-11T09:27:05;6.22;;;3.20;;
76105;SDS011;64832;45.274;5.880;2022-12-11T09:29:31;7.20;;;2.95;;
76105;SDS011;64832;45.274;5.880;2022-12-11T09:31:57;3.35;;;2.80;;
76105;SDS011;64832;45.274;5.880;2022-12-11T09:34:22;4.45;;;3.28;;
76105;SDS011;64832;45.274;5.880;2022-12-11T09:36:48;4.53;;;2.70;;
76105;SDS011;64832;45.274;5.880;2022-12-11T09:39:14;5.57;;;3.13;;
76105;SDS011;64832;45.274;5.880;2022-12-11T09:41:54;5.93;;;2.97;;
76105;SDS011;64832;45.274;5.880;2022-12-11T09:44:30;3.20;;;2.60;;
76105;SDS011;64832;45.274;5.880;2022-12-11T09:46:58;6.85;;;3.13;;
76105;SDS011;64832;45.274;5.880;2022-12-11T09:49:36;7.28;;;3.13;;
76105;SDS011;64832;45.274;5.880;2022-12-11T09:52:13;10.85;;;3.40;;
76105;SDS011;64832;45.274;5.880;2022-12-11T09:54:55;15.10;;;3.30;;
76105;SDS011;64832;45.274;5.880;2022-12-11T09:57:27;8.10;;;3.53;;
76105;SDS011;64832;45.274;5.880;2022-12-11T10:14:09;19.25;;;12.60;;
76105;SDS011;64832;45.274;5.880;2022-12-11T10:19:27;17.65;;;12.05;;
76105;SDS011;64832;45.274;5.880;2022-12-11T10:21:54;18.40;;;12.43;;
76105;SDS011;64832;45.274;5.880;2022-12-11T10:24:27;35.65;;;13.13;;
76105;SDS011;64832;45.274;5.880;2022-12-11T10:26:54;18.25;;;12.50;;
76105;SDS011;64832;45.274;5.880;2022-12-11T10:29:22;44.70;;;9.38;;
76105;SDS011;64832;45.274;5.880;2022-12-11T10:34:33;12.85;;;5.88;;
76105;SDS011;64832;45.274;5.880;2022-12-11T10:37:01;10.25;;;5.40;;
76105;SDS011;64832;45.274;5.880;2022-12-11T10:39:27;13.98;;;5.25;;
76105;SDS011;64832;45.274;5.880;2022-12-11T10:41:54;13.43;;;5.13;;
76105;SDS011;64832;45.274;5.880;2022-12-11T10:44:29;8.88;;;5.30;;
76105;SDS011;64832;45.274;5.880;2022-12-11T10:52:10;10.82;;;3.85;;
76105;SDS011;64832;45.274;5.880;2022-12-11T10:54:45;14.13;;;9.27;;
76105;SDS011;64832;45.274;5.880;2022-12-11T10:57:24;19.00;;;12.85;;
76105;SDS011;64832;45.274;5.880;2022-12-11T10:59:52;17.55;;;13.10;;
76105;SDS011;64832;45.274;5.880;2022-12-11T11:02:35;17.50;;;12.55;;
76105;SDS011;64832;45.274;5.880;2022-12-11T11:07:39;10.93;;;7.43;;
76105;SDS011;64832;45.274;5.880;2022-12-11T11:12:41;8.52;;;6.10;;
76105;SDS011;64832;45.274;5.880;2022-12-11T11:15:13;10.17;;;5.70;;
76105;SDS011;64832;45.274;5.880;2022-12-11T11:17:49;7.22;;;5.28;;
76105;SDS011;64832;45.274;5.880;2022-12-11T11:20:17;7.57;;;4.60;;
76105;SDS011;64832;45.274;5.880;2022-12-11T11:22:46;8.65;;;4.80;;
76105;SDS011;64832;45.274;5.880;2022-12-11T11:25:18;6.15;;;4.45;;
76105;SDS011;64832;45.274;5.880;2022-12-11T11:27:54;6.97;;;4.35;;
76105;SDS011;64832;45.274;5.880;2022-12-11T11:30:25;6.00;;;4.13;;
76105;SDS011;64832;45.274;5.880;2022-12-11T11:32:54;9.68;;;4.55;;
76105;SDS011;64832;45.274;5.880;2022-12-11T11:35:23;6.25;;;4.13;;
76105;SDS011;64832;45.274;5.880;2022-12-11T11:37:55;8.75;;;4.50;;
76105;SDS011;64832;45.274;5.880;2022-12-11T11:40:29;9.48;;;4.35;;
76105;SDS011;64832;45.274;5.880;2022-12-11T11:48:33;5.70;;;3.45;;
76105;SDS011;64832;45.274;5.880;2022-12-11T11:51:02;7.47;;;3.88;;
76105;SDS011;64832;45.274;5.880;2022-12-11T11:53:38;4.75;;;3.58;;
76105;SDS011;64832;45.274;5.880;2022-12-11T12:01:33;4.53;;;3.22;;
76105;SDS011;64832;45.274;5.880;2022-12-11T12:03:58;3.65;;;3.17;;
76105;SDS011;64832;45.274;5.880;2022-12-11T12:17:45;4.93;;;3.42;;
76105;SDS011;64832;45.274;5.880;2022-12-11T12:34:09;4.47;;;3.55;;
76105;SDS011;64832;45.274;5.880;2022-12-11T12:47:30;4.78;;;3.25;;
76105;SDS011;64832;45.274;5.880;2022-12-11T12:49:58;5.97;;;3.50;;
76105;SDS011;64832;45.274;5.880;2022-12-11T12:52:28;6.90;;;3.08;;
76105;SDS011;64832;45.274;5.880;2022-12-11T12:54:57;5.07;;;3.00;;
76105;SDS011;64832;45.274;5.880;2022-12-11T12:57:50;10.35;;;3.30;;
76105;SDS011;64832;45.274;5.880;2022-12-11T13:00:32;3.63;;;2.75;;
76105;SDS011;64832;45.274;5.880;2022-12-11T13:03:23;4.95;;;3.15;;
76105;SDS011;64832;45.274;5.880;2022-12-11T13:08:24;7.85;;;3.38;;
76105;SDS011;64832;45.274;5.880;2022-12-11T13:11:02;13.18;;;4.20;;
76105;SDS011;64832;45.274;5.880;2022-12-11T13:16:04;19.83;;;4.50;;
76105;SDS011;64832;45.274;5.880;2022-12-11T13:18:50;21.17;;;4.55;;
76105;SDS011;64832;45.274;5.880;2022-12-11T13:21:27;21.48;;;4.75;;
76105;SDS011;64832;45.274;5.880;2022-12-11T13:23:53;17.67;;;13.45;;
76105;SDS011;64832;45.274;5.880;2022-12-11T13:26:29;19.00;;;14.40;;
76105;SDS011;64832;45.274;5.880;2022-12-11T13:28:56;14.60;;;8.10;;
76105;SDS011;64832;45.274;5.880;2022-12-11T13:31:27;10.63;;;6.45;;
76105;SDS011;64832;45.274;5.880;2022-12-11T13:33:57;10.05;;;5.25;;
76105;SDS011;64832;45.274;5.880;2022-12-11T13:36:51;9.15;;;5.00;;
76105;SDS011;64832;45.274;5.880;2022-12-11T13:39:19;8.27;;;4.43;;
76105;SDS011;64832;45.274;5.880;2022-12-11T13:41:50;6.20;;;4.40;;
76105;SDS011;64832;45.274;5.880;2022-12-11T13:47:14;6.68;;;3.92;;
76105;SDS011;64832;45.274;5.880;2022-12-11T13:49:43;7.05;;;4.18;;
76105;SDS011;64832;45.274;5.880;2022-12-11T13:52:19;7.15;;;3.67;;
76105;SDS011;64832;45.274;5.880;2022-12-11T13:54:50;5.00;;;3.30;;
76105;SDS011;64832;45.274;5.880;2022-12-11T13:57:18;8.20;;;4.00;;
76105;SDS011;64832;45.274;5.880;2022-12-11T14:00:17;7.30;;;3.55;;
76105;SDS011;64832;45.274;5.880;2022-12-11T14:02:43;9.30;;;3.70;;
76105;SDS011;64832;45.274;5.880;2022-12-11T14:05:09;5.30;;;3.30;;
76105;SDS011;64832;45.274;5.880;2022-12-11T14:07:40;4.80;;;3.30;;
76105;SDS011;64832;45.274;5.880;2022-12-11T14:10:18;5.18;;;3.33;;
76105;SDS011;64832;45.274;5.880;2022-12-11T14:15:28;8.60;;;3.55;;
76105;SDS011;64832;45.274;5.880;2022-12-11T14:17:55;5.75;;;3.60;;
76105;SDS011;64832;45.274;5.880;2022-12-11T14:20:26;5.32;;;3.10;;
76105;SDS011;64832;45.274;5.880;2022-12-11T14:25:37;6.60;;;3.50;;
76105;SDS011;64832;45.274;5.880;2022-12-11T14:28:03;5.07;;;3.67;;
76105;SDS011;64832;45.274;5.880;2022-12-11T14:30:30;5.57;;;3.15;;
76105;SDS011;64832;45.274;5.880;2022-12-11T14:33:00;5.72;;;3.00;;
76105;SDS011;64832;45.274;5.880;2022-12-11T14:37:54;3.63;;;3.22;;
76105;SDS011;64832;45.274;5.880;2022-12-11T14:40:29;5.60;;;3.50;;
76105;SDS011;64832;45.274;5.880;2022-12-11T14:43:02;7.43;;;3.08;;
76105;SDS011;64832;45.274;5.880;2022-12-11T14:45:39;4.15;;;3.03;;
76105;SDS011;64832;45.274;5.880;2022-12-11T14:48:31;4.30;;;3.15;;
76105;SDS011;64832;45.274;5.880;2022-12-11T14:51:00;5.38;;;3.83;;
76105;SDS011;64832;45.274;5.880;2022-12-11T14:53:29;4.75;;;3.40;;
76105;SDS011;64832;45.274;5.880;2022-12-11T14:56:00;4.18;;;3.45;;
76105;SDS011;64832;45.274;5.880;2022-12-11T14:58:29;6.35;;;3.60;;
76105;SDS011;64832;45.274;5.880;2022-12-11T15:00:59;5.18;;;3.90;;
76105;SDS011;64832;45.274;5.880;2022-12-11T15:03:32;4.00;;;3.22;;
76105;SDS011;64832;45.274;5.880;2022-12-11T15:06:17;5.00;;;3.50;;
76105;SDS011;64832;45.274;5.880;2022-12-11T15:08:49;4.50;;;3.47;;
76105;SDS011;64832;45.274;5.880;2022-12-11T15:11:15;3.70;;;3.00;;
76105;SDS011;64832;45.274;5.880;2022-12-11T15:13:50;3.30;;;2.95;;
76105;SDS011;64832;45.274;5.880;2022-12-11T15:16:17;7.47;;;3.83;;
76105;SDS011;64832;45.274;5.880;2022-12-11T15:18:46;5.43;;;3.17;;
76105;SDS011;64832;45.274;5.880;2022-12-11T15:21:13;5.38;;;3.53;;
76105;SDS011;64832;45.274;5.880;2022-12-11T15:23:53;4.38;;;3.10;;
76105;SDS011;64832;45.274;5.880;2022-12-11T15:26:37;4.20;;;3.22;;
76105;SDS011;64832;45.274;5.880;2022-12-11T15:31:59;5.25;;;3.60;;
76105;SDS011;64832;45.274;5.880;2022-12-11T15:34:30;3.78;;;3.17;;
76105;SDS011;64832;45.274;5.880;2022-12-11T15:36:57;3.28;;;2.97;;
76105;SDS011;64832;45.274;5.880;2022-12-11T15:39:22;3.97;;;3.05;;
76105;SDS011;64832;45.274;5.880;2022-12-11T15:41:48;3.33;;;3.03;;
76105;SDS011;64832;45.274;5.880;2022-12-11T15:44:15;6.28;;;3.22;;
76105;SDS011;64832;45.274;5.880;2022-12-11T15:46:44;5.22;;;3.42;;
76105;SDS011;64832;45.274;5.880;2022-12-11T15:49:10;4.82;;;2.70;;
76105;SDS011;64832;45.274;5.880;2022-12-11T15:51:36;4.38;;;2.92;;
76105;SDS011;64832;45.274;5.880;2022-12-11T15:54:02;3.80;;;3.40;;
76105;SDS011;64832;45.274;5.880;2022-12-11T15:56:28;3.50;;;3.20;;
76105;SDS011;64832;45.274;5.880;2022-12-11T15:58:54;4.65;;;3.30;;
76105;SDS011;64832;45.274;5.880;2022-12-11T16:01:25;3.85;;;2.90;;
76105;SDS011;64832;45.274;5.880;2022-12-11T16:03:50;3.35;;;2.78;;
76105;SDS011;64832;45.274;5.880;2022-12-11T16:06:16;4.40;;;3.22;;
76105;SDS011;64832;45.274;5.880;2022-12-11T16:08:41;3.75;;;3.45;;
76105;SDS011;64832;45.274;5.880;2022-12-11T16:11:08;4.03;;;3.45;;
76105;SDS011;64832;45.274;5.880;2022-12-11T16:13:37;29.15;;;21.65;;
76105;SDS011;64832;45.274;5.880;2022-12-11T16:16:02;21.17;;;14.38;;
76105;SDS011;64832;45.274;5.880;2022-12-11T16:18:29;12.98;;;9.20;;
76105;SDS011;64832;45.274;5.880;2022-12-11T16:20:55;12.10;;;8.23;;
76105;SDS011;64832;45.274;5.880;2022-12-11T16:23:21;8.85;;;6.93;;
76105;SDS011;64832;45.274;5.880;2022-12-11T16:25:47;8.88;;;6.38;;
76105;SDS011;64832;45.274;5.880;2022-12-11T16:28:14;7.63;;;5.97;;
76105;SDS011;64832;45.274;5.880;2022-12-11T16:30:42;6.63;;;5.40;;
76105;SDS011;64832;45.274;5.880;2022-12-11T16:33:08;7.85;;;5.35;;
76105;SDS011;64832;45.274;5.880;2022-12-11T16:35:33;6.85;;;5.53;;
76105;SDS011;64832;45.274;5.880;2022-12-11T16:37:59;7.15;;;5.40;;
76105;SDS011;64832;45.274;5.880;2022-12-11T16:40:25;8.05;;;5.65;;
76105;SDS011;64832;45.274;5.880;2022-12-11T16:42:50;6.57;;;5.45;;
76105;SDS011;64832;45.274;5.880;2022-12-11T16:45:20;7.38;;;5.65;;
76105;SDS011;64832;45.274;5.880;2022-12-11T16:47:47;6.78;;;5.05;;
76105;SDS011;64832;45.274;5.880;2022-12-11T16:50:14;8.48;;;5.60;;
76105;SDS011;64832;45.274;5.880;2022-12-11T16:52:40;7.88;;;5.70;;
76105;SDS011;64832;45.274;5.880;2022-12-11T16:55:07;9.25;;;5.80;;
76105;SDS011;64832;45.274;5.880;2022-12-11T16:57:33;8.00;;;5.30;;
76105;SDS011;64832;45.274;5.880;2022-12-11T16:59:59;7.43;;;5.50;;
76105;SDS011;64832;45.274;5.880;2022-12-11T17:02:25;7.05;;;5.45;;
76105;SDS011;64832;45.274;5.880;2022-12-11T17:04:50;8.18;;;5.45;;
76105;SDS011;64832;45.274;5.880;2022-12-11T17:07:16;6.55;;;5.70;;
76105;SDS011;64832;45.274;5.880;2022-12-11T17:09:42;6.50;;;5.28;;
76105;SDS011;64832;45.274;5.880;2022-12-11T17:12:07;7.90;;;5.70;;
76105;SDS011;64832;45.274;5.880;2022-12-11T17:14:33;7.72;;;5.90;;
76105;SDS011;64832;45.274;5.880;2022-12-11T17:16:58;8.18;;;6.07;;
76105;SDS011;64832;45.274;5.880;2022-12-11T17:19:24;7.55;;;5.93;;
76105;SDS011;64832;45.274;5.880;2022-12-11T17:21:49;8.98;;;5.68;;
76105;SDS011;64832;45.274;5.880;2022-12-11T17:24:16;6.55;;;5.85;;
76105;SDS011;64832;45.274;5.880;2022-12-11T17:26:41;6.80;;;5.55;;
76105;SDS011;64832;45.274;5.880;2022-12-11T17:29:08;7.75;;;5.70;;
76105;SDS011;64832;45.274;5.880;2022-12-11T17:31:35;7.32;;;5.95;;
76105;SDS011;64832;45.274;5.880;2022-12-11T17:34:01;7.30;;;5.63;;
76105;SDS011;64832;45.274;5.880;2022-12-11T17:36:27;6.70;;;6.00;;
76105;SDS011;64832;45.274;5.880;2022-12-11T17:38:53;5.95;;;5.35;;
76105;SDS011;64832;45.274;5.880;2022-12-11T17:41:18;6.55;;;5.65;;
76105;SDS011;64832;45.274;5.880;2022-12-11T17:43:45;7.10;;;5.90;;
76105;SDS011;64832;45.274;5.880;2022-12-11T17:46:11;8.93;;;5.80;;
76105;SDS011;64832;45.274;5.880;2022-12-11T17:48:36;6.28;;;5.30;;
76105;SDS011;64832;45.274;5.880;2022-12-11T17:51:03;8.35;;;6.03;;
76105;SDS011;64832;45.274;5.880;2022-12-11T17:53:30;7.97;;;6.00;;
76105;SDS011;64832;45.274;5.880;2022-12-11T17:55:58;7.45;;;5.43;;
76105;SDS011;64832;45.274;5.880;2022-12-11T17:58:25;6.93;;;5.43;;
76105;SDS011;64832;45.274;5.880;2022-12-11T18:00:52;6.85;;;5.78;;
76105;SDS011;64832;45.274;5.880;2022-12-11T18:03:18;6.22;;;5.63;;
76105;SDS011;64832;45.274;5.880;2022-12-11T18:05:46;7.40;;;6.13;;
76105;SDS011;64832;45.274;5.880;2022-12-11T18:08:20;8.80;;;5.90;;
76105;SDS011;64832;45.274;5.880;2022-12-11T18:10:50;7.88;;;6.15;;
76105;SDS011;64832;45.274;5.880;2022-12-11T18:13:16;8.18;;;6.47;;
76105;SDS011;64832;45.274;5.880;2022-12-11T18:15:41;10.02;;;6.60;;
76105;SDS011;64832;45.274;5.880;2022-12-11T18:18:07;8.63;;;6.40;;
76105;SDS011;64832;45.274;5.880;2022-12-11T18:20:33;8.82;;;7.07;;
76105;SDS011;64832;45.274;5.880;2022-12-11T18:22:59;7.28;;;6.55;;
76105;SDS011;64832;45.274;5.880;2022-12-11T18:25:26;8.23;;;6.60;;
76105;SDS011;64832;45.274;5.880;2022-12-11T18:27:51;8.07;;;6.78;;
76105;SDS011;64832;45.274;5.880;2022-12-11T18:30:19;8.00;;;6.45;;
76105;SDS011;64832;45.274;5.880;2022-12-11T18:32:45;8.80;;;6.82;;
76105;SDS011;64832;45.274;5.880;2022-12-11T18:35:10;9.07;;;6.85;;
76105;SDS011;64832;45.274;5.880;2022-12-11T18:37:36;7.35;;;6.40;;
76105;SDS011;64832;45.274;5.880;2022-12-11T18:40:03;8.60;;;6.50;;
76105;SDS011;64832;45.274;5.880;2022-12-11T18:42:29;7.72;;;6.22;;
76105;SDS011;64832;45.274;5.880;2022-12-11T18:44:55;9.80;;;7.22;;
76105;SDS011;64832;45.274;5.880;2022-12-11T18:47:20;9.30;;;6.68;;
76105;SDS011;64832;45.274;5.880;2022-12-11T18:49:45;8.15;;;6.60;;
76105;SDS011;64832;45.274;5.880;2022-12-11T18:52:11;9.75;;;6.85;;
76105;SDS011;64832;45.274;5.880;2022-12-11T18:54:37;8.57;;;7.10;;
76105;SDS011;64832;45.274;5.880;2022-12-11T18:57:02;8.65;;;7.07;;
76105;SDS011;64832;45.274;5.880;2022-12-11T18:59:27;8.77;;;6.60;;
76105;SDS011;64832;45.274;5.880;2022-12-11T19:01:53;8.43;;;6.50;;
76105;SDS011;64832;45.274;5.880;2022-12-11T19:04:18;8.98;;;6.68;;
76105;SDS011;64832;45.274;5.880;2022-12-11T19:06:44;8.85;;;6.97;;
76105;SDS011;64832;45.274;5.880;2022-12-11T19:09:10;8.25;;;6.55;;
76105;SDS011;64832;45.274;5.880;2022-12-11T19:11:37;7.95;;;6.50;;
76105;SDS011;64832;45.274;5.880;2022-12-11T19:14:04;10.32;;;6.50;;
76105;SDS011;64832;45.274;5.880;2022-12-11T19:16:31;8.18;;;6.72;;
76105;SDS011;64832;45.274;5.880;2022-12-11T19:19:02;12.75;;;6.90;;
76105;SDS011;64832;45.274;5.880;2022-12-11T19:21:30;7.88;;;6.70;;
76105;SDS011;64832;45.274;5.880;2022-12-11T19:23:56;8.00;;;7.03;;
76105;SDS011;64832;45.274;5.880;2022-12-11T19:26:23;7.68;;;6.38;;
76105;SDS011;64832;45.274;5.880;2022-12-11T19:28:49;9.05;;;6.65;;
76105;SDS011;64832;45.274;5.880;2022-12-11T19:31:18;9.63;;;6.90;;
76105;SDS011;64832;45.274;5.880;2022-12-11T19:33:45;8.85;;;7.47;;
76105;SDS011;64832;45.274;5.880;2022-12-11T19:36:12;8.18;;;6.57;;
76105;SDS011;64832;45.274;5.880;2022-12-11T19:38:40;7.45;;;6.43;;
76105;SDS011;64832;45.274;5.880;2022-12-11T19:41:16;9.40;;;6.57;;
76105;SDS011;64832;45.274;5.880;2022-12-11T19:43:42;9.48;;;7.18;;
76105;SDS011;64832;45.274;5.880;2022-12-11T19:46:08;8.18;;;6.80;;
76105;SDS011;64832;45.274;5.880;2022-12-11T19:48:35;8.30;;;6.65;;
76105;SDS011;64832;45.274;5.880;2022-12-11T19:51:08;10.27;;;7.13;;
76105;SDS011;64832;45.274;5.880;2022-12-11T19:53:35;9.15;;;6.72;;
76105;SDS011;64832;45.274;5.880;2022-12-11T19:56:01;9.98;;;6.85;;
76105;SDS011;64832;45.274;5.880;2022-12-11T19:58:27;10.90;;;7.22;;
76105;SDS011;64832;45.274;5.880;2022-12-11T20:00:53;8.57;;;7.13;;
76105;SDS011;64832;45.274;5.880;2022-12-11T20:03:18;11.23;;;8.38;;
76105;SDS011;64832;45.274;5.880;2022-12-11T20:05:44;11.70;;;9.57;;
76105;SDS011;64832;45.274;5.880;2022-12-11T20:08:09;14.10;;;9.77;;
76105;SDS011;64832;45.274;5.880;2022-12-11T20:10:35;14.88;;;10.60;;
76105;SDS011;64832;45.274;5.880;2022-12-11T20:13:00;14.27;;;10.73;;
76105;SDS011;64832;45.274;5.880;2022-12-11T20:15:26;13.20;;;10.13;;
76105;SDS011;64832;45.274;5.880;2022-12-11T20:17:55;13.23;;;9.43;;
76105;SDS011;64832;45.274;5.880;2022-12-11T20:20:22;13.15;;;9.85;;
76105;SDS011;64832;45.274;5.880;2022-12-11T20:22:51;14.25;;;10.65;;
76105;SDS011;64832;45.274;5.880;2022-12-11T20:25:17;14.07;;;10.10;;
76105;SDS011;64832;45.274;5.880;2022-12-11T20:27:43;12.65;;;9.98;;
76105;SDS011;64832;45.274;5.880;2022-12-11T20:30:08;15.70;;;10.23;;
76105;SDS011;64832;45.274;5.880;2022-12-11T20:32:35;15.68;;;10.40;;
76105;SDS011;64832;45.274;5.880;2022-12-11T20:35:00;16.98;;;11.10;;
76105;SDS011;64832;45.274;5.880;2022-12-11T20:37:26;14.65;;;10.30;;
76105;SDS011;64832;45.274;5.880;2022-12-11T20:39:53;18.75;;;10.60;;
76105;SDS011;64832;45.274;5.880;2022-12-11T20:42:18;15.88;;;10.70;;
76105;SDS011;64832;45.274;5.880;2022-12-11T20:44:44;14.80;;;9.75;;
76105;SDS011;64832;45.274;5.880;2022-12-11T20:47:09;13.45;;;9.75;;
76105;SDS011;64832;45.274;5.880;2022-12-11T20:49:35;14.95;;;10.25;;
76105;SDS011;64832;45.274;5.880;2022-12-11T20:52:00;13.05;;;9.52;;
76105;SDS011;64832;45.274;5.880;2022-12-11T20:54:26;12.75;;;9.70;;
76105;SDS011;64832;45.274;5.880;2022-12-11T20:56:51;15.15;;;10.13;;
76105;SDS011;64832;45.274;5.880;2022-12-11T20:59:17;13.38;;;9.38;;
76105;SDS011;64832;45.274;5.880;2022-12-11T21:01:42;11.38;;;9.30;;
76105;SDS011;64832;45.274;5.880;2022-12-11T21:04:08;12.43;;;8.68;;
76105;SDS011;64832;45.274;5.880;2022-12-11T21:06:35;12.27;;;9.18;;
76105;SDS011;64832;45.274;5.880;2022-12-11T21:09:04;11.00;;;9.00;;
76105;SDS011;64832;45.274;5.880;2022-12-11T21:11:41;13.07;;;9.02;;
76105;SDS011;64832;45.274;5.880;2022-12-11T21:14:07;10.80;;;8.75;;
76105;SDS011;64832;45.274;5.880;2022-12-11T21:16:33;12.43;;;9.13;;
76105;SDS011;64832;45.274;5.880;2022-12-11T21:19:00;12.50;;;9.25;;
76105;SDS011;64832;45.274;5.880;2022-12-11T21:21:26;11.60;;;8.93;;
76105;SDS011;64832;45.274;5.880;2022-12-11T21:23:52;10.77;;;8.52;;
76105;SDS011;64832;45.274;5.880;2022-12-11T21:26:18;12.77;;;9.10;;
76105;SDS011;64832;45.274;5.880;2022-12-11T21:28:43;14.35;;;9.02;;
76105;SDS011;64832;45.274;5.880;2022-12-11T21:31:11;13.10;;;8.65;;
76105;SDS011;64832;45.274;5.880;2022-12-11T21:33:39;11.05;;;9.13;;
76105;SDS011;64832;45.274;5.880;2022-12-11T21:36:04;11.85;;;9.00;;
76105;SDS011;64832;45.274;5.880;2022-12-11T21:38:31;12.27;;;9.55;;
76105;SDS011;64832;45.274;5.880;2022-12-11T21:40:57;13.18;;;8.73;;
76105;SDS011;64832;45.274;5.880;2022-12-11T21:43:30;15.73;;;8.48;;
76105;SDS011;64832;45.274;5.880;2022-12-11T21:45:56;12.43;;;8.75;;
76105;SDS011;64832;45.274;5.880;2022-12-11T21:48:21;10.88;;;8.85;;
76105;SDS011;64832;45.274;5.880;2022-12-11T21:50:46;10.65;;;8.18;;
